Burlington, Kentucky
Current Conditions -  °F | °C
As of 11:52 AM on Tuesday 27 Jan 2015 (Local Time) from KCVG Reporting Station
Broken Clouds Broken Clouds  
Wind Chill: 19°   Ceiling: 13000
Heat Index: 26°   Visibility: 10mi
Dew Point: 13°   Wind: 6mph
Humidity: 58%   Direction: 60°ENE
Pressure: 30.08"   Gusts: NA
Location:  39.03°N, 84.72°W
Report Text: KCVG 271652Z 06005KT 10SM BKN130 M03/M11 A3008 RMK AO2 SLP194 T10331106
Loading
Personal Weather Stations






























Interactive Weather Map New forecast layout! Learn more

10-Day Weather Forecast

Advertisements
Track Severe Weather on mobile